Time,TemperatureF,DewpointF,PressureIn,WindDirection,WindDirectionDegrees,WindSpeedMPH,WindSpeedGustMPH,Humidity,HourlyPrecipIn,Conditions,Clouds,dailyrainin,SoftwareType,DateUTC
2013-08-14 00:12:00,82.0,73.0,29.94,SSW,206,0.0,1.0,74,0.00,,,0.00,weatherlink.com 1.10,2013-08-14 05:12:00,
2013-08-14 00:27:00,81.8,73.0,29.94,SSW,205,0.0,2.0,74,0.00,,,0.00,weatherlink.com 1.10,2013-08-14 05:27:00,
2013-08-14 00:42:00,81.6,73.0,29.95,SSW,206,0.0,0.0,74,0.00,,,0.00,weatherlink.com 1.10,2013-08-14 05:42:00,
2013-08-14 00:57:00,81.4,73.0,29.95,SSW,206,0.0,0.0,75,0.00,,,0.00,weatherlink.com 1.10,2013-08-14 05:57:00,
2013-08-14 01:12:00,81.0,73.0,29.94,SSW,206,0.0,1.0,76,0.00,,,0.00,weatherlink.com 1.10,2013-08-14 06:12:00,
2013-08-14 01:27:00,80.9,73.0,29.94,SSW,206,0.0,4.0,77,0.00,,,0.00,weatherlink.com 1.10,2013-08-14 06:27:00,
2013-08-14 01:42:00,81.0,73.0,29.94,SSW,205,0.0,1.0,77,0.00,,,0.00,weatherlink.com 1.10,2013-08-14 06:42:00,
2013-08-14 01:57:00,80.8,73.0,29.94,SSW,205,0.0,0.0,78,0.00,,,0.00,weatherlink.com 1.10,2013-08-14 06:57:00,
2013-08-14 02:12:00,80.8,73.0,29.94,SSW,205,0.0,2.0,78,0.00,,,0.00,weatherlink.com 1.10,2013-08-14 07:12:00,
2013-08-14 02:27:00,80.5,73.0,29.93,SSW,205,0.0,0.0,79,0.00,,,0.00,weatherlink.com 1.10,2013-08-14 07:27:00,
2013-08-14 02:42:00,80.3,74.0,29.93,SSW,205,0.0,0.0,80,0.00,,,0.00,weatherlink.com 1.10,2013-08-14 07:42:00,
2013-08-14 02:57:00,80.1,74.0,29.93,SSW,205,0.0,0.0,81,0.00,,,0.00,weatherlink.com 1.10,2013-08-14 07:57:00,
2013-08-14 03:12:00,80.2,74.0,29.93,SSW,205,0.0,2.0,81,0.00,,,0.00,weatherlink.com 1.10,2013-08-14 08:12:00,
2013-08-14 03:27:00,81.1,76.0,29.93,SSW,205,0.0,2.0,83,0.00,,,0.00,weatherlink.com 1.10,2013-08-14 08:27:00,
2013-08-14 03:42:00,81.8,76.0,29.93,South,177,0.0,1.0,82,0.00,,,0.00,weatherlink.com 1.10,2013-08-14 08:42:00,
2013-08-14 03:57:00,81.8,76.0,29.93,South,170,0.0,4.0,82,0.00,,,0.00,weatherlink.com 1.10,2013-08-14 08:57:00,
2013-08-14 04:12:00,81.8,76.0,29.92,South,187,0.0,1.0,82,0.00,,,0.00,weatherlink.com 1.10,2013-08-14 09:12:00,
2013-08-14 04:27:00,81.6,76.0,29.93,SE,135,1.0,1.0,82,0.00,,,0.00,weatherlink.com 1.10,2013-08-14 09:27:00,
2013-08-14 04:42:00,81.4,76.0,29.93,SE,132,0.0,2.0,83,0.00,,,0.00,weatherlink.com 1.10,2013-08-14 09:42:00,
2013-08-14 04:57:00,81.3,76.0,29.93,SE,135,0.0,1.0,83,0.00,,,0.00,weatherlink.com 1.10,2013-08-14 09:57:00,
2013-08-14 05:12:00,81.1,76.0,29.94,SE,135,0.0,0.0,83,0.00,,,0.00,weatherlink.com 1.10,2013-08-14 10:12:00,
2013-08-14 05:27:00,81.0,75.0,29.94,SE,135,0.0,0.0,83,0.00,,,0.00,weatherlink.com 1.10,2013-08-14 10:27:00,
2013-08-14 05:42:00,80.8,75.0,29.94,SE,143,0.0,2.0,83,0.00,,,0.00,weatherlink.com 1.10,2013-08-14 10:42:00,
2013-08-14 05:57:00,80.5,75.0,29.94,SE,143,0.0,1.0,84,0.01,,,0.01,weatherlink.com 1.10,2013-08-14 10:57:00,
2013-08-14 06:12:00,79.4,74.0,29.94,SE,143,0.0,1.0,84,0.01,,,0.01,weatherlink.com 1.10,2013-08-14 11:12:00,
2013-08-14 06:27:00,78.7,74.0,29.94,SE,143,0.0,0.0,84,0.01,,,0.01,weatherlink.com 1.10,2013-08-14 11:27:00,
2013-08-14 06:42:00,78.0,73.0,29.94,SE,143,0.0,1.0,84,0.01,,,0.01,weatherlink.com 1.10,2013-08-14 11:42:00,
2013-08-14 06:57:00,77.5,72.0,29.95,SE,143,0.0,1.0,83,0.00,,,0.01,weatherlink.com 1.10,2013-08-14 11:57:00,
2013-08-14 07:12:00,77.4,72.0,29.95,SE,125,0.0,2.0,82,0.00,,,0.01,weatherlink.com 1.10,2013-08-14 12:12:00,
2013-08-14 07:27:00,77.6,72.0,29.95,East,93,0.0,3.0,82,0.00,,,0.01,weatherlink.com 1.10,2013-08-14 12:27:00,
2013-08-14 07:42:00,77.9,72.0,29.95,East,93,0.0,1.0,82,0.00,,,0.01,weatherlink.com 1.10,2013-08-14 12:42:00,
2013-08-14 07:57:00,78.5,73.0,29.95,East,93,0.0,1.0,83,0.00,,,0.01,weatherlink.com 1.10,2013-08-14 12:57:00,
2013-08-14 08:12:00,80.0,75.0,29.96,SE,127,0.0,5.0,84,0.00,,,0.01,weatherlink.com 1.10,2013-08-14 13:12:00,
2013-08-14 08:27:00,80.6,75.0,29.97,East,81,0.0,1.0,83,0.00,,,0.01,weatherlink.com 1.10,2013-08-14 13:27:00,
2013-08-14 08:42:00,81.1,75.0,29.97,North,350,2.0,4.0,82,0.00,,,0.01,weatherlink.com 1.10,2013-08-14 13:42:00,
2013-08-14 08:57:00,81.4,75.0,29.98,NW,320,0.0,5.0,80,0.00,,,0.01,weatherlink.com 1.10,2013-08-14 13:57:00,
2013-08-14 09:12:00,81.9,75.0,29.98,NW,326,0.0,3.0,79,0.00,,,0.01,weatherlink.com 1.10,2013-08-14 14:12:00,
2013-08-14 09:27:00,82.2,75.0,29.98,WNW,290,0.0,6.0,79,0.00,,,0.01,weatherlink.com 1.10,2013-08-14 14:27:00,
2013-08-14 09:42:00,82.5,75.0,29.99,NW,323,0.0,8.0,78,0.00,,,0.01,weatherlink.com 1.10,2013-08-14 14:42:00,
2013-08-14 09:57:00,84.4,74.0,29.99,WSW,240,0.0,11.0,72,0.00,,,0.01,weatherlink.com 1.10,2013-08-14 14:57:00,
2013-08-14 10:13:00,86.1,75.0,29.99,West,264,0.0,8.0,69,0.00,,,0.01,weatherlink.com 1.10,2013-08-14 15:13:00,
2013-08-14 10:28:00,86.7,74.0,29.99,NW,304,3.0,12.0,66,0.00,,,0.01,weatherlink.com 1.10,2013-08-14 15:28:00,
2013-08-14 10:43:00,87.7,74.0,29.99,NNE,13,5.0,10.0,63,0.00,,,0.01,weatherlink.com 1.10,2013-08-14 15:43:00,
2013-08-14 10:58:00,88.4,73.0,29.99,WNW,299,8.0,17.0,61,0.00,,,0.01,weatherlink.com 1.10,2013-08-14 15:58:00,
2013-08-14 11:13:00,88.4,72.0,29.98,NW,324,0.0,10.0,58,0.00,,,0.01,weatherlink.com 1.10,2013-08-14 16:13:00,
2013-08-14 11:28:00,88.7,74.0,29.98,WNW,296,1.0,8.0,61,0.00,,,0.01,weatherlink.com 1.10,2013-08-14 16:28:00,
2013-08-14 11:43:00,89.0,73.0,29.98,SSE,159,0.0,6.0,60,0.00,,,0.01,weatherlink.com 1.10,2013-08-14 16:43:00,
2013-08-14 11:58:00,90.2,73.0,29.98,NW,319,4.0,8.0,58,0.00,,,0.01,weatherlink.com 1.10,2013-08-14 16:58:00,
2013-08-14 12:13:00,89.7,73.0,29.97,WNW,296,3.0,5.0,59,0.00,,,0.01,weatherlink.com 1.10,2013-08-14 17:13:00,
2013-08-14 12:28:00,88.3,73.0,29.97,WSW,254,0.0,9.0,61,0.00,,,0.01,weatherlink.com 1.10,2013-08-14 17:28:00,
2013-08-14 12:43:00,87.5,74.0,29.96,NW,311,0.0,9.0,65,0.00,,,0.01,weatherlink.com 1.10,2013-08-14 17:43:00,
2013-08-14 12:58:00,87.1,74.0,29.96,WNW,294,8.0,11.0,66,0.00,,,0.01,weatherlink.com 1.10,2013-08-14 17:58:00,
2013-08-14 13:13:00,87.5,74.0,29.95,WNW,292,5.0,10.0,65,0.00,,,0.01,weatherlink.com 1.10,2013-08-14 18:13:00,
2013-08-14 13:28:00,88.5,74.0,29.95,NNW,331,0.0,7.0,63,0.00,,,0.01,weatherlink.com 1.10,2013-08-14 18:28:00,
2013-08-14 13:43:00,90.1,73.0,29.94,WNW,301,0.0,10.0,57,0.00,,,0.01,weatherlink.com 1.10,2013-08-14 18:43:00,
2013-08-14 13:58:00,90.6,75.0,29.94,West,270,0.0,5.0,60,0.00,,,0.01,weatherlink.com 1.10,2013-08-14 18:58:00,
2013-08-14 14:13:00,90.1,75.0,29.93,West,262,6.0,10.0,62,0.00,,,0.01,weatherlink.com 1.10,2013-08-14 19:13:00,
2013-08-14 14:43:00,91.8,73.0,29.92,NNE,23,4.0,9.0,54,0.00,,,0.01,weatherlink.com 1.10,2013-08-14 19:43:00,
2013-08-14 14:58:00,93.9,74.0,29.91,West,276,5.0,9.0,52,0.00,,,0.01,weatherlink.com 1.10,2013-08-14 19:58:00,
2013-08-14 15:13:00,92.3,73.0,29.91,SSE,168,0.0,6.0,54,0.00,,,0.01,weatherlink.com 1.10,2013-08-14 20:13:00,
2013-08-14 15:28:00,88.7,73.0,29.92,NW,304,8.0,13.0,59,0.00,,,0.01,weatherlink.com 1.10,2013-08-14 20:28:00,
2013-08-14 15:43:00,86.2,73.0,29.92,NW,315,0.0,16.0,64,0.00,,,0.01,weatherlink.com 1.10,2013-08-14 20:43:00,
2013-08-14 17:20:00,77.8,72.0,29.94,WNW,290,0.0,0.0,83,0.00,,,0.14,weatherlink.com 1.10,2013-08-14 22:20:00,
2013-08-14 17:44:00,77.6,72.0,29.94,West,275,1.0,7.0,82,0.00,,,0.14,weatherlink.com 1.10,2013-08-14 22:44:00,
2013-08-14 17:59:00,77.9,72.0,29.94,ESE,104,0.0,1.0,82,0.00,,,0.14,weatherlink.com 1.10,2013-08-14 22:59:00,
2013-08-14 18:14:00,78.4,73.0,29.94,South,169,0.0,3.0,83,0.00,,,0.14,weatherlink.com 1.10,2013-08-14 23:14:00,
2013-08-14 18:29:00,80.0,75.0,29.94,WSW,240,0.0,5.0,84,0.00,,,0.14,weatherlink.com 1.10,2013-08-14 23:29:00,
2013-08-14 18:44:00,81.0,76.0,29.95,SSW,201,0.0,4.0,84,0.00,,,0.14,weatherlink.com 1.10,2013-08-14 23:44:00,
2013-08-14 18:59:00,80.6,75.0,29.95,SSW,199,0.0,2.0,84,0.00,,,0.14,weatherlink.com 1.10,2013-08-14 23:59:00,
2013-08-14 19:14:00,80.4,75.0,29.96,SSW,198,0.0,3.0,84,0.00,,,0.14,weatherlink.com 1.10,2013-08-15 00:14:00,
2013-08-14 19:29:00,80.1,75.0,29.96,WSW,251,0.0,1.0,84,0.00,,,0.14,weatherlink.com 1.10,2013-08-15 00:29:00,
2013-08-14 19:44:00,79.7,75.0,29.95,WSW,251,0.0,2.0,84,0.00,,,0.14,weatherlink.com 1.10,2013-08-15 00:44:00,
2013-08-14 19:59:00,79.3,75.0,29.95,SW,230,0.0,1.0,85,0.00,,,0.14,weatherlink.com 1.10,2013-08-15 00:59:00,
2013-08-14 20:14:00,79.0,74.0,29.96,South,188,0.0,0.0,85,0.00,,,0.14,weatherlink.com 1.10,2013-08-15 01:14:00,
2013-08-14 20:29:00,78.7,74.0,29.97,South,188,0.0,1.0,84,0.00,,,0.14,weatherlink.com 1.10,2013-08-15 01:29:00,
2013-08-14 20:44:00,78.4,73.0,29.96,South,188,0.0,1.0,84,0.00,,,0.14,weatherlink.com 1.10,2013-08-15 01:44:00,
2013-08-14 20:59:00,78.0,73.0,29.97,South,188,0.0,1.0,84,0.00,,,0.14,weatherlink.com 1.10,2013-08-15 01:59:00,
2013-08-14 21:14:00,77.7,72.0,29.98,South,188,0.0,0.0,83,0.00,,,0.14,weatherlink.com 1.10,2013-08-15 02:14:00,
2013-08-14 21:29:00,77.4,72.0,29.99,South,188,0.0,0.0,83,0.00,,,0.14,weatherlink.com 1.10,2013-08-15 02:29:00,
2013-08-14 21:44:00,77.1,71.0,30.00,South,188,0.0,0.0,82,0.00,,,0.14,weatherlink.com 1.10,2013-08-15 02:44:00,
2013-08-14 21:59:00,76.8,71.0,30.00,South,188,0.0,0.0,81,0.00,,,0.14,weatherlink.com 1.10,2013-08-15 02:59:00,
2013-08-14 22:14:00,76.6,70.0,30.00,South,188,0.0,0.0,81,0.00,,,0.14,weatherlink.com 1.10,2013-08-15 03:14:00,
2013-08-14 22:29:00,76.4,70.0,30.01,South,188,0.0,0.0,80,0.00,,,0.14,weatherlink.com 1.10,2013-08-15 03:29:00,
2013-08-14 22:44:00,76.2,70.0,30.01,South,188,0.0,0.0,80,0.00,,,0.14,weatherlink.com 1.10,2013-08-15 03:44:00,
2013-08-14 22:59:00,76.1,69.0,30.00,South,188,0.0,0.0,79,0.00,,,0.14,weatherlink.com 1.10,2013-08-15 03:59:00,
2013-08-14 23:14:00,76.1,69.0,30.00,South,188,0.0,0.0,78,0.00,,,0.14,weatherlink.com 1.10,2013-08-15 04:14:00,
2013-08-14 23:29:00,75.9,69.0,30.00,South,188,0.0,0.0,78,0.00,,,0.14,weatherlink.com 1.10,2013-08-15 04:29:00,
2013-08-14 23:44:00,75.6,68.0,29.99,South,188,0.0,0.0,78,0.00,,,0.14,weatherlink.com 1.10,2013-08-15 04:44:00,
2013-08-14 23:59:00,75.5,68.0,29.99,South,188,0.0,0.0,77,0.00,,,0.14,weatherlink.com 1.10,2013-08-15 04:59:00,